sensor_id;sensor_type;location;lat;lon;timestamp;P1;durP1;ratioP1;P2;durP2;ratioP2
52984;SDS011;40499;47.830;19.026;2022-10-31T00:00:57;44.38;;;20.08;;
52984;SDS011;40499;47.830;19.026;2022-10-31T00:03:23;43.83;;;18.45;;
52984;SDS011;40499;47.830;19.026;2022-10-31T00:05:49;53.35;;;20.95;;
52984;SDS011;40499;47.830;19.026;2022-10-31T00:08:15;44.33;;;19.98;;
52984;SDS011;40499;47.830;19.026;2022-10-31T00:10:41;45.30;;;19.45;;
52984;SDS011;40499;47.830;19.026;2022-10-31T00:13:08;51.53;;;20.63;;
52984;SDS011;40499;47.830;19.026;2022-10-31T00:15:34;47.20;;;20.15;;
52984;SDS011;40499;47.830;19.026;2022-10-31T00:18:00;44.35;;;18.63;;
52984;SDS011;40499;47.830;19.026;2022-10-31T00:20:26;44.00;;;19.25;;
52984;SDS011;40499;47.830;19.026;2022-10-31T00:22:52;42.45;;;19.23;;
52984;SDS011;40499;47.830;19.026;2022-10-31T00:25:17;41.65;;;18.33;;
52984;SDS011;40499;47.830;19.026;2022-10-31T00:27:42;44.88;;;19.30;;
52984;SDS011;40499;47.830;19.026;2022-10-31T00:30:08;42.72;;;18.88;;
52984;SDS011;40499;47.830;19.026;2022-10-31T00:32:33;43.75;;;19.42;;
52984;SDS011;40499;47.830;19.026;2022-10-31T00:34:59;50.28;;;19.60;;
52984;SDS011;40499;47.830;19.026;2022-10-31T00:37:24;44.90;;;18.67;;
52984;SDS011;40499;47.830;19.026;2022-10-31T00:39:49;42.80;;;18.48;;
52984;SDS011;40499;47.830;19.026;2022-10-31T00:42:15;40.38;;;18.17;;
52984;SDS011;40499;47.830;19.026;2022-10-31T00:44:40;48.97;;;19.60;;
52984;SDS011;40499;47.830;19.026;2022-10-31T00:47:06;48.85;;;20.65;;
52984;SDS011;40499;47.830;19.026;2022-10-31T00:49:31;49.10;;;20.83;;
52984;SDS011;40499;47.830;19.026;2022-10-31T00:51:57;46.05;;;20.00;;
52984;SDS011;40499;47.830;19.026;2022-10-31T00:54:22;44.88;;;18.83;;
52984;SDS011;40499;47.830;19.026;2022-10-31T00:56:47;41.83;;;18.85;;
52984;SDS011;40499;47.830;19.026;2022-10-31T00:59:12;42.25;;;18.25;;
52984;SDS011;40499;47.830;19.026;2022-10-31T01:01:38;41.30;;;17.85;;
52984;SDS011;40499;47.830;19.026;2022-10-31T01:04:03;44.65;;;19.35;;
52984;SDS011;40499;47.830;19.026;2022-10-31T01:06:29;39.67;;;17.98;;
52984;SDS011;40499;47.830;19.026;2022-10-31T01:08:54;47.88;;;19.08;;
52984;SDS011;40499;47.830;19.026;2022-10-31T01:11:20;47.03;;;18.35;;
52984;SDS011;40499;47.830;19.026;2022-10-31T01:13:47;37.83;;;17.88;;
52984;SDS011;40499;47.830;19.026;2022-10-31T01:16:17;43.30;;;19.08;;
52984;SDS011;40499;47.830;19.026;2022-10-31T01:18:44;42.58;;;18.52;;
52984;SDS011;40499;47.830;19.026;2022-10-31T01:21:14;45.72;;;19.08;;
52984;SDS011;40499;47.830;19.026;2022-10-31T01:23:42;43.70;;;18.40;;
52984;SDS011;40499;47.830;19.026;2022-10-31T01:26:17;44.22;;;18.80;;
52984;SDS011;40499;47.830;19.026;2022-10-31T01:28:48;46.85;;;19.50;;
52984;SDS011;40499;47.830;19.026;2022-10-31T01:31:15;48.67;;;20.40;;
52984;SDS011;40499;47.830;19.026;2022-10-31T01:33:43;50.67;;;20.38;;
52984;SDS011;40499;47.830;19.026;2022-10-31T01:38:37;51.70;;;21.55;;
52984;SDS011;40499;47.830;19.026;2022-10-31T01:41:02;50.42;;;19.80;;
52984;SDS011;40499;47.830;19.026;2022-10-31T01:46:32;51.67;;;20.98;;
52984;SDS011;40499;47.830;19.026;2022-10-31T01:49:02;45.83;;;21.27;;
52984;SDS011;40499;47.830;19.026;2022-10-31T01:51:33;42.05;;;17.95;;
52984;SDS011;40499;47.830;19.026;2022-10-31T01:54:04;46.58;;;18.70;;
52984;SDS011;40499;47.830;19.026;2022-10-31T01:56:32;42.38;;;18.02;;
52984;SDS011;40499;47.830;19.026;2022-10-31T01:59:02;38.53;;;17.15;;
52984;SDS011;40499;47.830;19.026;2022-10-31T02:01:32;44.92;;;16.67;;
52984;SDS011;40499;47.830;19.026;2022-10-31T02:03:58;37.28;;;16.50;;
52984;SDS011;40499;47.830;19.026;2022-10-31T02:06:30;45.40;;;18.73;;
52984;SDS011;40499;47.830;19.026;2022-10-31T02:09:04;41.80;;;16.63;;
52984;SDS011;40499;47.830;19.026;2022-10-31T02:11:30;46.50;;;16.88;;
52984;SDS011;40499;47.830;19.026;2022-10-31T02:13:57;43.95;;;17.23;;
52984;SDS011;40499;47.830;19.026;2022-10-31T02:16:25;41.83;;;17.02;;
52984;SDS011;40499;47.830;19.026;2022-10-31T02:18:50;40.05;;;17.42;;
52984;SDS011;40499;47.830;19.026;2022-10-31T02:21:20;45.75;;;17.83;;
52984;SDS011;40499;47.830;19.026;2022-10-31T02:26:46;36.70;;;15.98;;
52984;SDS011;40499;47.830;19.026;2022-10-31T02:40:32;39.27;;;15.93;;
52984;SDS011;40499;47.830;19.026;2022-10-31T02:45:44;35.50;;;13.85;;
52984;SDS011;40499;47.830;19.026;2022-10-31T02:48:14;33.88;;;14.85;;
52984;SDS011;40499;47.830;19.026;2022-10-31T02:50:46;36.72;;;15.60;;
52984;SDS011;40499;47.830;19.026;2022-10-31T02:53:20;41.72;;;17.17;;
52984;SDS011;40499;47.830;19.026;2022-10-31T02:55:56;36.80;;;16.05;;
52984;SDS011;40499;47.830;19.026;2022-10-31T02:58:26;39.63;;;16.65;;
52984;SDS011;40499;47.830;19.026;2022-10-31T03:06:08;35.40;;;15.07;;
52984;SDS011;40499;47.830;19.026;2022-10-31T03:08:41;38.78;;;14.70;;
52984;SDS011;40499;47.830;19.026;2022-10-31T03:11:14;30.85;;;14.07;;
52984;SDS011;40499;47.830;19.026;2022-10-31T03:13:46;29.40;;;12.93;;
52984;SDS011;40499;47.830;19.026;2022-10-31T03:18:58;35.22;;;13.52;;
52984;SDS011;40499;47.830;19.026;2022-10-31T03:21:27;37.67;;;13.02;;
52984;SDS011;40499;47.830;19.026;2022-10-31T03:24:01;37.63;;;13.05;;
52984;SDS011;40499;47.830;19.026;2022-10-31T03:26:29;34.38;;;14.23;;
52984;SDS011;40499;47.830;19.026;2022-10-31T03:29:03;32.10;;;13.02;;
52984;SDS011;40499;47.830;19.026;2022-10-31T03:31:32;34.00;;;13.65;;
52984;SDS011;40499;47.830;19.026;2022-10-31T03:34:02;31.08;;;13.40;;
52984;SDS011;40499;47.830;19.026;2022-10-31T03:36:28;30.30;;;12.77;;
52984;SDS011;40499;47.830;19.026;2022-10-31T03:38:56;36.38;;;12.88;;
52984;SDS011;40499;47.830;19.026;2022-10-31T03:41:23;30.63;;;13.10;;
52984;SDS011;40499;47.830;19.026;2022-10-31T03:43:59;28.65;;;11.70;;
52984;SDS011;40499;47.830;19.026;2022-10-31T03:46:29;28.27;;;11.30;;
52984;SDS011;40499;47.830;19.026;2022-10-31T03:48:54;28.10;;;11.93;;
52984;SDS011;40499;47.830;19.026;2022-10-31T03:59:42;28.85;;;11.65;;
52984;SDS011;40499;47.830;19.026;2022-10-31T04:02:14;30.95;;;12.48;;
52984;SDS011;40499;47.830;19.026;2022-10-31T04:04:42;32.25;;;12.50;;
52984;SDS011;40499;47.830;19.026;2022-10-31T04:07:09;36.65;;;12.48;;
52984;SDS011;40499;47.830;19.026;2022-10-31T04:09:36;31.48;;;11.52;;
52984;SDS011;40499;47.830;19.026;2022-10-31T04:12:04;33.80;;;12.23;;
52984;SDS011;40499;47.830;19.026;2022-10-31T04:14:34;28.90;;;11.40;;
52984;SDS011;40499;47.830;19.026;2022-10-31T04:17:03;34.50;;;11.27;;
52984;SDS011;40499;47.830;19.026;2022-10-31T04:19:33;33.05;;;12.27;;
52984;SDS011;40499;47.830;19.026;2022-10-31T04:21:59;31.42;;;11.75;;
52984;SDS011;40499;47.830;19.026;2022-10-31T04:24:24;35.53;;;12.13;;
52984;SDS011;40499;47.830;19.026;2022-10-31T04:26:50;30.92;;;11.02;;
52984;SDS011;40499;47.830;19.026;2022-10-31T04:29:15;32.28;;;11.82;;
52984;SDS011;40499;47.830;19.026;2022-10-31T04:31:41;33.47;;;11.75;;
52984;SDS011;40499;47.830;19.026;2022-10-31T04:34:06;36.67;;;12.07;;
52984;SDS011;40499;47.830;19.026;2022-10-31T04:36:32;36.35;;;12.90;;
52984;SDS011;40499;47.830;19.026;2022-10-31T04:38:57;35.72;;;13.32;;
52984;SDS011;40499;47.830;19.026;2022-10-31T04:41:23;35.53;;;14.15;;
52984;SDS011;40499;47.830;19.026;2022-10-31T04:43:48;36.90;;;13.35;;
52984;SDS011;40499;47.830;19.026;2022-10-31T04:46:13;37.83;;;13.55;;
52984;SDS011;40499;47.830;19.026;2022-10-31T04:48:39;35.00;;;13.15;;
52984;SDS011;40499;47.830;19.026;2022-10-31T04:51:04;42.25;;;13.43;;
52984;SDS011;40499;47.830;19.026;2022-10-31T04:53:30;43.08;;;14.35;;
52984;SDS011;40499;47.830;19.026;2022-10-31T04:55:57;37.13;;;12.90;;
52984;SDS011;40499;47.830;19.026;2022-10-31T04:58:24;37.42;;;13.52;;
52984;SDS011;40499;47.830;19.026;2022-10-31T05:00:53;34.35;;;13.13;;
52984;SDS011;40499;47.830;19.026;2022-10-31T05:03:19;38.50;;;14.20;;
52984;SDS011;40499;47.830;19.026;2022-10-31T05:05:45;36.58;;;13.00;;
52984;SDS011;40499;47.830;19.026;2022-10-31T05:08:10;37.17;;;14.18;;
52984;SDS011;40499;47.830;19.026;2022-10-31T05:10:36;38.05;;;14.50;;
52984;SDS011;40499;47.830;19.026;2022-10-31T05:13:02;40.78;;;14.18;;
52984;SDS011;40499;47.830;19.026;2022-10-31T05:15:29;38.05;;;13.98;;
52984;SDS011;40499;47.830;19.026;2022-10-31T05:17:55;42.17;;;14.60;;
52984;SDS011;40499;47.830;19.026;2022-10-31T05:20:22;44.05;;;14.35;;
52984;SDS011;40499;47.830;19.026;2022-10-31T05:22:51;44.40;;;14.43;;
52984;SDS011;40499;47.830;19.026;2022-10-31T05:25:17;43.58;;;13.63;;
52984;SDS011;40499;47.830;19.026;2022-10-31T05:27:45;44.20;;;15.25;;
52984;SDS011;40499;47.830;19.026;2022-10-31T05:30:12;42.15;;;15.27;;
52984;SDS011;40499;47.830;19.026;2022-10-31T05:32:39;45.65;;;14.90;;
52984;SDS011;40499;47.830;19.026;2022-10-31T05:35:07;41.42;;;15.15;;
52984;SDS011;40499;47.830;19.026;2022-10-31T05:37:33;52.50;;;16.30;;
52984;SDS011;40499;47.830;19.026;2022-10-31T05:40:00;42.33;;;15.35;;
52984;SDS011;40499;47.830;19.026;2022-10-31T05:42:26;49.70;;;16.88;;
52984;SDS011;40499;47.830;19.026;2022-10-31T05:44:51;41.38;;;15.13;;
52984;SDS011;40499;47.830;19.026;2022-10-31T05:47:16;50.38;;;16.48;;
52984;SDS011;40499;47.830;19.026;2022-10-31T05:49:42;44.42;;;16.35;;
52984;SDS011;40499;47.830;19.026;2022-10-31T05:52:07;44.58;;;16.55;;
52984;SDS011;40499;47.830;19.026;2022-10-31T05:54:32;48.35;;;16.15;;
52984;SDS011;40499;47.830;19.026;2022-10-31T05:56:58;45.85;;;16.83;;
52984;SDS011;40499;47.830;19.026;2022-10-31T05:59:23;50.78;;;17.80;;
52984;SDS011;40499;47.830;19.026;2022-10-31T06:01:48;52.00;;;16.95;;
52984;SDS011;40499;47.830;19.026;2022-10-31T06:04:14;58.00;;;18.85;;
52984;SDS011;40499;47.830;19.026;2022-10-31T06:06:39;57.80;;;19.67;;
52984;SDS011;40499;47.830;19.026;2022-10-31T06:09:04;54.75;;;19.33;;
52984;SDS011;40499;47.830;19.026;2022-10-31T06:11:30;73.53;;;22.35;;
52984;SDS011;40499;47.830;19.026;2022-10-31T06:13:55;63.67;;;20.67;;
52984;SDS011;40499;47.830;19.026;2022-10-31T06:16:20;72.93;;;24.00;;
52984;SDS011;40499;47.830;19.026;2022-10-31T06:18:47;69.95;;;24.83;;
52984;SDS011;40499;47.830;19.026;2022-10-31T06:21:13;69.80;;;22.08;;
52984;SDS011;40499;47.830;19.026;2022-10-31T06:23:38;65.75;;;22.58;;
52984;SDS011;40499;47.830;19.026;2022-10-31T06:26:04;71.05;;;22.98;;
52984;SDS011;40499;47.830;19.026;2022-10-31T06:28:29;71.93;;;24.25;;
52984;SDS011;40499;47.830;19.026;2022-10-31T06:30:54;73.22;;;23.80;;
52984;SDS011;40499;47.830;19.026;2022-10-31T06:33:20;72.50;;;24.55;;
52984;SDS011;40499;47.830;19.026;2022-10-31T06:35:46;71.57;;;23.23;;
52984;SDS011;40499;47.830;19.026;2022-10-31T06:38:12;68.97;;;23.98;;
52984;SDS011;40499;47.830;19.026;2022-10-31T06:40:37;67.30;;;24.50;;
52984;SDS011;40499;47.830;19.026;2022-10-31T06:43:03;73.30;;;24.35;;
52984;SDS011;40499;47.830;19.026;2022-10-31T06:45:28;66.50;;;24.42;;
52984;SDS011;40499;47.830;19.026;2022-10-31T06:47:54;69.03;;;24.83;;
52984;SDS011;40499;47.830;19.026;2022-10-31T06:50:21;64.00;;;23.08;;
52984;SDS011;40499;47.830;19.026;2022-10-31T06:52:53;66.95;;;23.75;;
52984;SDS011;40499;47.830;19.026;2022-10-31T06:55:20;57.15;;;23.00;;
52984;SDS011;40499;47.830;19.026;2022-10-31T06:57:57;67.40;;;24.67;;
52984;SDS011;40499;47.830;19.026;2022-10-31T07:00:24;61.22;;;23.65;;
52984;SDS011;40499;47.830;19.026;2022-10-31T07:02:58;64.22;;;23.67;;
52984;SDS011;40499;47.830;19.026;2022-10-31T07:05:25;63.92;;;23.63;;
52984;SDS011;40499;47.830;19.026;2022-10-31T07:07:52;65.32;;;23.90;;
52984;SDS011;40499;47.830;19.026;2022-10-31T07:10:21;56.80;;;22.60;;
52984;SDS011;40499;47.830;19.026;2022-10-31T07:12:48;61.22;;;20.80;;
52984;SDS011;40499;47.830;19.026;2022-10-31T07:15:13;54.05;;;21.83;;
52984;SDS011;40499;47.830;19.026;2022-10-31T07:17:39;52.50;;;21.98;;
52984;SDS011;40499;47.830;19.026;2022-10-31T07:20:04;54.42;;;19.55;;
52984;SDS011;40499;47.830;19.026;2022-10-31T07:22:39;53.63;;;21.27;;
52984;SDS011;40499;47.830;19.026;2022-10-31T07:25:04;54.47;;;19.55;;
52984;SDS011;40499;47.830;19.026;2022-10-31T07:27:37;50.53;;;20.95;;
52984;SDS011;40499;47.830;19.026;2022-10-31T07:30:07;49.65;;;19.77;;
52984;SDS011;40499;47.830;19.026;2022-10-31T07:32:40;46.38;;;19.27;;
52984;SDS011;40499;47.830;19.026;2022-10-31T07:35:10;45.13;;;19.13;;
52984;SDS011;40499;47.830;19.026;2022-10-31T07:37:38;47.78;;;18.98;;
52984;SDS011;40499;47.830;19.026;2022-10-31T07:40:04;48.45;;;20.75;;
52984;SDS011;40499;47.830;19.026;2022-10-31T07:42:43;46.75;;;19.35;;
52984;SDS011;40499;47.830;19.026;2022-10-31T07:45:14;41.17;;;18.80;;
52984;SDS011;40499;47.830;19.026;2022-10-31T07:47:42;38.92;;;18.30;;
52984;SDS011;40499;47.830;19.026;2022-10-31T07:50:18;44.78;;;17.73;;
52984;SDS011;40499;47.830;19.026;2022-10-31T07:52:47;42.00;;;18.70;;
52984;SDS011;40499;47.830;19.026;2022-10-31T07:55:13;37.42;;;17.02;;
52984;SDS011;40499;47.830;19.026;2022-10-31T07:57:39;36.85;;;16.58;;
52984;SDS011;40499;47.830;19.026;2022-10-31T08:00:08;35.13;;;15.48;;
52984;SDS011;40499;47.830;19.026;2022-10-31T08:02:34;48.50;;;23.60;;
52984;SDS011;40499;47.830;19.026;2022-10-31T08:05:00;43.88;;;18.75;;
52984;SDS011;40499;47.830;19.026;2022-10-31T08:07:26;37.78;;;17.33;;
52984;SDS011;40499;47.830;19.026;2022-10-31T08:09:52;41.50;;;18.02;;
52984;SDS011;40499;47.830;19.026;2022-10-31T08:12:18;44.58;;;17.60;;
52984;SDS011;40499;47.830;19.026;2022-10-31T08:14:44;36.47;;;17.02;;
52984;SDS011;40499;47.830;19.026;2022-10-31T08:17:09;37.97;;;18.77;;
52984;SDS011;40499;47.830;19.026;2022-10-31T08:19:35;41.15;;;18.25;;
52984;SDS011;40499;47.830;19.026;2022-10-31T08:22:00;40.35;;;17.98;;
52984;SDS011;40499;47.830;19.026;2022-10-31T08:24:26;41.88;;;18.08;;
52984;SDS011;40499;47.830;19.026;2022-10-31T08:26:51;37.70;;;18.15;;
52984;SDS011;40499;47.830;19.026;2022-10-31T08:29:17;42.20;;;18.92;;
52984;SDS011;40499;47.830;19.026;2022-10-31T08:31:42;43.58;;;19.20;;
52984;SDS011;40499;47.830;19.026;2022-10-31T08:34:08;36.22;;;18.35;;
52984;SDS011;40499;47.830;19.026;2022-10-31T08:36:33;46.58;;;21.05;;
52984;SDS011;40499;47.830;19.026;2022-10-31T08:38:59;49.38;;;23.27;;
52984;SDS011;40499;47.830;19.026;2022-10-31T08:41:24;54.65;;;24.23;;
52984;SDS011;40499;47.830;19.026;2022-10-31T08:43:50;52.20;;;23.30;;
52984;SDS011;40499;47.830;19.026;2022-10-31T08:46:15;51.85;;;22.55;;
52984;SDS011;40499;47.830;19.026;2022-10-31T08:48:41;58.05;;;23.52;;
52984;SDS011;40499;47.830;19.026;2022-10-31T08:51:08;59.55;;;24.17;;
52984;SDS011;40499;47.830;19.026;2022-10-31T08:53:34;59.53;;;23.83;;
52984;SDS011;40499;47.830;19.026;2022-10-31T08:55:59;49.78;;;21.63;;
52984;SDS011;40499;47.830;19.026;2022-10-31T08:58:24;53.45;;;23.33;;
52984;SDS011;40499;47.830;19.026;2022-10-31T09:00:51;58.13;;;23.20;;
52984;SDS011;40499;47.830;19.026;2022-10-31T09:03:19;60.88;;;24.20;;
52984;SDS011;40499;47.830;19.026;2022-10-31T09:05:46;54.85;;;22.77;;
52984;SDS011;40499;47.830;19.026;2022-10-31T09:08:12;54.28;;;23.15;;
52984;SDS011;40499;47.830;19.026;2022-10-31T09:10:39;55.92;;;22.73;;
52984;SDS011;40499;47.830;19.026;2022-10-31T09:13:06;49.78;;;22.15;;
52984;SDS011;40499;47.830;19.026;2022-10-31T09:15:36;54.40;;;21.80;;
52984;SDS011;40499;47.830;19.026;2022-10-31T09:18:04;45.47;;;20.98;;
52984;SDS011;40499;47.830;19.026;2022-10-31T09:20:30;44.28;;;19.67;;
52984;SDS011;40499;47.830;19.026;2022-10-31T09:23:04;45.50;;;19.67;;
52984;SDS011;40499;47.830;19.026;2022-10-31T09:25:35;44.72;;;20.67;;
52984;SDS011;40499;47.830;19.026;2022-10-31T09:28:01;50.42;;;20.67;;
52984;SDS011;40499;47.830;19.026;2022-10-31T09:30:29;49.28;;;20.67;;
52984;SDS011;40499;47.830;19.026;2022-10-31T09:33:06;44.75;;;20.17;;
52984;SDS011;40499;47.830;19.026;2022-10-31T09:35:35;49.25;;;21.40;;
52984;SDS011;40499;47.830;19.026;2022-10-31T09:38:02;51.70;;;21.90;;
52984;SDS011;40499;47.830;19.026;2022-10-31T09:40:35;47.60;;;22.02;;
52984;SDS011;40499;47.830;19.026;2022-10-31T09:52:04;43.85;;;20.70;;
52984;SDS011;40499;47.830;19.026;2022-10-31T09:54:41;46.20;;;20.23;;
52984;SDS011;40499;47.830;19.026;2022-10-31T09:57:10;48.90;;;20.48;;
52984;SDS011;40499;47.830;19.026;2022-10-31T09:59:39;45.92;;;19.73;;
52984;SDS011;40499;47.830;19.026;2022-10-31T10:05:00;43.78;;;19.17;;
52984;SDS011;40499;47.830;19.026;2022-10-31T10:09:57;41.05;;;18.70;;
52984;SDS011;40499;47.830;19.026;2022-10-31T10:12:33;36.67;;;18.45;;
52984;SDS011;40499;47.830;19.026;2022-10-31T10:18:02;38.22;;;17.33;;
52984;SDS011;40499;47.830;19.026;2022-10-31T10:26:22;45.97;;;20.08;;
52984;SDS011;40499;47.830;19.026;2022-10-31T10:31:57;43.25;;;20.35;;
52984;SDS011;40499;47.830;19.026;2022-10-31T10:34:27;51.50;;;23.17;;
52984;SDS011;40499;47.830;19.026;2022-10-31T10:39:41;50.70;;;22.73;;
52984;SDS011;40499;47.830;19.026;2022-10-31T10:42:11;47.17;;;21.20;;
52984;SDS011;40499;47.830;19.026;2022-10-31T10:44:57;40.15;;;19.25;;
52984;SDS011;40499;47.830;19.026;2022-10-31T10:47:42;41.10;;;18.05;;
52984;SDS011;40499;47.830;19.026;2022-10-31T10:50:19;42.40;;;19.50;;
52984;SDS011;40499;47.830;19.026;2022-10-31T10:52:57;40.03;;;18.70;;
52984;SDS011;40499;47.830;19.026;2022-10-31T10:55:32;38.20;;;18.58;;
52984;SDS011;40499;47.830;19.026;2022-10-31T10:58:03;45.10;;;20.90;;
52984;SDS011;40499;47.830;19.026;2022-10-31T11:02:59;44.28;;;21.67;;
52984;SDS011;40499;47.830;19.026;2022-10-31T11:08:05;41.78;;;22.20;;
52984;SDS011;40499;47.830;19.026;2022-10-31T11:10:31;36.20;;;17.92;;
52984;SDS011;40499;47.830;19.026;2022-10-31T11:13:06;41.08;;;19.50;;
52984;SDS011;40499;47.830;19.026;2022-10-31T11:15:49;33.67;;;16.33;;
52984;SDS011;40499;47.830;19.026;2022-10-31T11:18:37;26.65;;;13.70;;
52984;SDS011;40499;47.830;19.026;2022-10-31T11:21:05;26.73;;;13.20;;
52984;SDS011;40499;47.830;19.026;2022-10-31T11:23:31;25.10;;;12.98;;
52984;SDS011;40499;47.830;19.026;2022-10-31T11:26:02;25.40;;;12.93;;
52984;SDS011;40499;47.830;19.026;2022-10-31T11:28:32;48.90;;;24.17;;
52984;SDS011;40499;47.830;19.026;2022-10-31T11:31:00;42.78;;;21.25;;
52984;SDS011;40499;47.830;19.026;2022-10-31T11:33:36;39.50;;;17.70;;
52984;SDS011;40499;47.830;19.026;2022-10-31T11:36:23;34.58;;;16.00;;
52984;SDS011;40499;47.830;19.026;2022-10-31T11:38:51;42.92;;;21.52;;
52984;SDS011;40499;47.830;19.026;2022-10-31T11:41:18;42.53;;;20.48;;
52984;SDS011;40499;47.830;19.026;2022-10-31T11:43:51;34.88;;;17.58;;
52984;SDS011;40499;47.830;19.026;2022-10-31T11:46:21;34.42;;;16.63;;
52984;SDS011;40499;47.830;19.026;2022-10-31T11:48:55;41.47;;;18.20;;
52984;SDS011;40499;47.830;19.026;2022-10-31T11:51:29;32.67;;;15.05;;
52984;SDS011;40499;47.830;19.026;2022-10-31T11:53:59;33.45;;;15.35;;
52984;SDS011;40499;47.830;19.026;2022-10-31T11:56:27;25.95;;;13.02;;
52984;SDS011;40499;47.830;19.026;2022-10-31T11:59:04;27.10;;;14.15;;
52984;SDS011;40499;47.830;19.026;2022-10-31T12:01:31;41.58;;;18.15;;
52984;SDS011;40499;47.830;19.026;2022-10-31T12:04:07;54.45;;;23.70;;
52984;SDS011;40499;47.830;19.026;2022-10-31T12:06:35;41.97;;;20.35;;
52984;SDS011;40499;47.830;19.026;2022-10-31T12:09:02;47.10;;;21.55;;
52984;SDS011;40499;47.830;19.026;2022-10-31T12:22:02;45.73;;;18.27;;
52984;SDS011;40499;47.830;19.026;2022-10-31T12:27:17;36.53;;;17.50;;
52984;SDS011;40499;47.830;19.026;2022-10-31T12:30:07;33.85;;;16.40;;
52984;SDS011;40499;47.830;19.026;2022-10-31T12:32:39;34.75;;;16.30;;
52984;SDS011;40499;47.830;19.026;2022-10-31T12:48:10;30.00;;;14.73;;
52984;SDS011;40499;47.830;19.026;2022-10-31T12:55:41;25.70;;;12.75;;
52984;SDS011;40499;47.830;19.026;2022-10-31T12:58:26;32.35;;;15.02;;
52984;SDS011;40499;47.830;19.026;2022-10-31T13:01:35;32.42;;;14.80;;
52984;SDS011;40499;47.830;19.026;2022-10-31T13:03:55;30.25;;;14.07;;
52984;SDS011;40499;47.830;19.026;2022-10-31T13:06:35;24.48;;;12.73;;
52984;SDS011;40499;47.830;19.026;2022-10-31T13:09:03;27.95;;;13.85;;
52984;SDS011;40499;47.830;19.026;2022-10-31T13:11:32;64.68;;;24.95;;
52984;SDS011;40499;47.830;19.026;2022-10-31T13:14:01;115.45;;;42.97;;
52984;SDS011;40499;47.830;19.026;2022-10-31T13:16:29;73.55;;;31.45;;
52984;SDS011;40499;47.830;19.026;2022-10-31T13:18:57;52.80;;;23.48;;
52984;SDS011;40499;47.830;19.026;2022-10-31T13:24:16;40.88;;;18.15;;
52984;SDS011;40499;47.830;19.026;2022-10-31T13:26:44;34.95;;;14.68;;
52984;SDS011;40499;47.830;19.026;2022-10-31T13:29:14;30.65;;;14.88;;
52984;SDS011;40499;47.830;19.026;2022-10-31T13:31:41;25.83;;;13.40;;
52984;SDS011;40499;47.830;19.026;2022-10-31T13:34:21;32.78;;;15.88;;
52984;SDS011;40499;47.830;19.026;2022-10-31T13:39:25;46.88;;;23.27;;
52984;SDS011;40499;47.830;19.026;2022-10-31T13:41:57;35.42;;;18.13;;
52984;SDS011;40499;47.830;19.026;2022-10-31T13:44:25;33.30;;;16.88;;
52984;SDS011;40499;47.830;19.026;2022-10-31T13:46:52;34.33;;;17.42;;
52984;SDS011;40499;47.830;19.026;2022-10-31T13:54:40;30.88;;;16.90;;
52984;SDS011;40499;47.830;19.026;2022-10-31T13:57:29;42.75;;;19.90;;
52984;SDS011;40499;47.830;19.026;2022-10-31T13:59:52;29.40;;;14.75;;
52984;SDS011;40499;47.830;19.026;2022-10-31T14:02:20;24.42;;;14.05;;
52984;SDS011;40499;47.830;19.026;2022-10-31T14:04:49;33.10;;;15.48;;
52984;SDS011;40499;47.830;19.026;2022-10-31T14:07:18;33.25;;;15.70;;
52984;SDS011;40499;47.830;19.026;2022-10-31T14:12:49;40.25;;;17.30;;
52984;SDS011;40499;47.830;19.026;2022-10-31T14:15:22;42.08;;;18.52;;
52984;SDS011;40499;47.830;19.026;2022-10-31T14:18:02;30.63;;;16.00;;
52984;SDS011;40499;47.830;19.026;2022-10-31T14:25:47;34.42;;;15.60;;
52984;SDS011;40499;47.830;19.026;2022-10-31T14:28:19;31.43;;;15.93;;
52984;SDS011;40499;47.830;19.026;2022-10-31T14:30:55;36.17;;;17.38;;
52984;SDS011;40499;47.830;19.026;2022-10-31T14:33:22;35.90;;;16.77;;
52984;SDS011;40499;47.830;19.026;2022-10-31T14:35:54;34.70;;;17.25;;
52984;SDS011;40499;47.830;19.026;2022-10-31T14:41:04;36.72;;;16.88;;
52984;SDS011;40499;47.830;19.026;2022-10-31T14:46:07;35.45;;;15.30;;
52984;SDS011;40499;47.830;19.026;2022-10-31T14:51:24;32.33;;;16.10;;
52984;SDS011;40499;47.830;19.026;2022-10-31T14:53:49;36.72;;;16.90;;
52984;SDS011;40499;47.830;19.026;2022-10-31T14:56:20;34.17;;;16.90;;
52984;SDS011;40499;47.830;19.026;2022-10-31T14:58:46;31.90;;;15.00;;
52984;SDS011;40499;47.830;19.026;2022-10-31T15:01:17;28.65;;;14.48;;
52984;SDS011;40499;47.830;19.026;2022-10-31T15:03:44;34.42;;;15.23;;
52984;SDS011;40499;47.830;19.026;2022-10-31T15:06:14;36.92;;;15.43;;
52984;SDS011;40499;47.830;19.026;2022-10-31T15:11:09;36.53;;;17.08;;
52984;SDS011;40499;47.830;19.026;2022-10-31T15:13:35;35.10;;;17.20;;
52984;SDS011;40499;47.830;19.026;2022-10-31T15:16:07;38.60;;;17.15;;
52984;SDS011;40499;47.830;19.026;2022-10-31T15:18:33;36.72;;;17.90;;
52984;SDS011;40499;47.830;19.026;2022-10-31T15:20:58;32.13;;;15.63;;
52984;SDS011;40499;47.830;19.026;2022-10-31T15:23:24;37.83;;;16.10;;
52984;SDS011;40499;47.830;19.026;2022-10-31T15:25:50;36.60;;;16.42;;
52984;SDS011;40499;47.830;19.026;2022-10-31T15:28:20;34.42;;;15.38;;
52984;SDS011;40499;47.830;19.026;2022-10-31T15:30:50;31.83;;;15.32;;
52984;SDS011;40499;47.830;19.026;2022-10-31T15:33:20;36.00;;;16.65;;
52984;SDS011;40499;47.830;19.026;2022-10-31T15:35:54;37.20;;;16.38;;
52984;SDS011;40499;47.830;19.026;2022-10-31T15:38:20;31.50;;;15.45;;
52984;SDS011;40499;47.830;19.026;2022-10-31T15:40:51;32.97;;;15.55;;
52984;SDS011;40499;47.830;19.026;2022-10-31T15:43:16;32.63;;;15.57;;
52984;SDS011;40499;47.830;19.026;2022-10-31T15:45:42;35.60;;;16.80;;
52984;SDS011;40499;47.830;19.026;2022-10-31T15:48:25;29.90;;;14.50;;
52984;SDS011;40499;47.830;19.026;2022-10-31T15:50:52;25.63;;;13.77;;
52984;SDS011;40499;47.830;19.026;2022-10-31T15:56:29;36.45;;;13.43;;
52984;SDS011;40499;47.830;19.026;2022-10-31T15:58:45;30.42;;;12.93;;
52984;SDS011;40499;47.830;19.026;2022-10-31T16:06:26;28.63;;;12.75;;
52984;SDS011;40499;47.830;19.026;2022-10-31T16:08:51;28.25;;;12.13;;
52984;SDS011;40499;47.830;19.026;2022-10-31T16:11:22;23.25;;;11.02;;
52984;SDS011;40499;47.830;19.026;2022-10-31T16:16:16;26.10;;;12.20;;
52984;SDS011;40499;47.830;19.026;2022-10-31T16:18:42;27.00;;;11.95;;
52984;SDS011;40499;47.830;19.026;2022-10-31T16:21:07;51.85;;;30.40;;
52984;SDS011;40499;47.830;19.026;2022-10-31T16:23:33;64.00;;;41.28;;
52984;SDS011;40499;47.830;19.026;2022-10-31T16:25:59;34.80;;;19.70;;
52984;SDS011;40499;47.830;19.026;2022-10-31T16:28:25;26.05;;;11.43;;
52984;SDS011;40499;47.830;19.026;2022-10-31T16:30:51;24.55;;;12.23;;
52984;SDS011;40499;47.830;19.026;2022-10-31T16:33:33;24.10;;;10.68;;
52984;SDS011;40499;47.830;19.026;2022-10-31T16:36:01;26.75;;;11.07;;
52984;SDS011;40499;47.830;19.026;2022-10-31T16:38:38;25.33;;;10.70;;
52984;SDS011;40499;47.830;19.026;2022-10-31T16:41:03;18.13;;;10.30;;